Date,TemperatureHighF,TemperatureAvgF,TemperatureLowF,DewpointHighF,DewpointAvgF,DewpointLowF,HumidityHigh,HumidityAvg,HumidityLow,PressureMaxIn,PressureMinIn,WindSpeedMaxMPH,WindSpeedAvgMPH,GustSpeedMaxMPH,PrecipitationSumIn
2013-1-1,39.7,32.6,27.2,33.9,30.0,26.2,98,91,77,30.52,30.37,4,0,6,0.00
2013-1-2,46.7,36.0,29.3,32.7,26.8,22.5,93,70,49,30.38,30.20,4,0,6,0.00
2013-1-3,44.5,35.0,27.5,34.1,26.2,21.6,97,72,48,30.21,30.11,6,0,12,0.27
2013-1-4,47.5,41.5,35.0,44.9,40.1,33.6,99,95,81,30.32,30.18,7,1,11,0.06
2013-1-5,43.2,40.6,38.8,39.2,36.6,34.8,98,86,74,30.21,30.12,6,0,12,0.12
2013-1-6,43.4,40.4,38.5,40.6,39.0,37.3,98,95,87,30.19,30.00,8,1,11,0.14
2013-1-7,48.4,44.5,38.5,46.8,42.9,37.7,99,94,89,30.17,29.82,14,3,19,0.15
2013-1-8,50.2,45.1,39.7,48.4,43.8,38.7,99,95,89,30.17,29.73,17,3,26,0.55
2013-1-9,48.8,38.0,32.3,48.1,37.3,31.7,100,98,95,29.96,29.68,24,2,25,0.93
2013-1-10,35.7,32.9,28.3,35.3,32.4,27.0,100,98,90,30.13,29.95,4,0,5,0.22
2013-1-11,32.7,27.1,23.6,31.9,25.9,22.6,100,96,88,30.35,30.12,2,0,5,0.05
2013-1-12,34.0,27.4,23.1,31.0,24.4,22.3,98,89,70,30.47,30.34,8,0,9,0.05
2013-1-13,34.8,27.6,21.8,29.3,24.9,20.5,97,90,70,30.52,30.46,4,0,4,0.05
2013-1-14,34.3,32.1,30.0,31.4,29.6,27.7,95,91,78,30.59,30.49,2,0,6,0.02
2013-1-15,41.6,34.8,30.4,34.9,31.2,28.8,97,87,70,30.72,30.58,3,0,6,0.07
2013-1-16,42.2,33.4,27.3,35.1,30.9,26.5,100,91,76,30.69,30.54,2,0,5,0.02
2013-1-17,35.9,31.0,25.9,35.0,30.3,25.1,99,97,95,30.54,30.31,0,0,0,0.00
2013-1-18,34.6,31.0,28.8,34.3,30.7,28.3,99,99,98,30.37,30.28,4,0,5,0.01
2013-1-19,32.6,30.8,28.7,32.3,30.5,28.4,99,99,99,30.40,30.36,3,0,5,0.00
2013-1-20,39.0,32.4,29.6,38.9,32.1,29.3,100,99,99,30.41,30.28,3,0,5,0.01
2013-1-21,32.4,30.2,27.2,32.1,29.8,26.7,100,99,98,30.29,30.15,6,0,7,0.01
2013-1-22,37.7,32.3,27.3,37.6,31.9,26.8,100,99,91,30.17,29.92,2,0,6,0.00
2013-1-23,40.8,38.5,35.5,39.9,35.6,28.6,100,90,63,30.15,29.86,6,1,8,0.24
2013-1-24,43.7,40.6,38.6,39.8,38.4,36.4,98,92,78,30.22,30.07,8,1,12,0.13
2013-1-25,47.6,43.3,39.6,45.5,42.0,38.5,99,96,87,30.08,29.94,5,0,8,0.11
2013-1-26,42.0,40.0,38.2,41.0,38.8,37.2,98,95,92,30.05,29.89,9,1,14,0.29
2013-1-27,40.4,38.8,37.8,39.0,37.6,36.5,99,96,91,30.07,30.00,8,1,13,0.13
2013-1-28,40.4,39.0,37.5,40.1,38.6,37.1,99,99,98,30.10,30.01,4,1,9,0.41
2013-1-29,44.9,42.7,40.1,44.6,42.4,39.8,100,99,99,30.34,30.09,6,1,11,0.62
2013-1-30,46.1,44.9,42.5,46.0,44.8,42.2,100,100,99,30.39,30.33,6,1,11,0.20
2013-1-31,46.9,45.2,44.1,45.4,44.6,44.0,100,98,92,30.41,30.31,7,1,12,0.12